Time;durP1;ratioP1;P1;durP2;ratioP2;P2;SDS_P1;SDS_P2;PMS_P1;PMS_P2;Temp;Humidity;BMP_temperature;BMP_pressure;BME280_temperature;BME280_humidity;BME280_pressure;Samples;Min_cycle;Max_cycle;Signal;HPM_P1;HPM_P2
2023/12/17 00:01:21;;;;;;;8.57;4.57;;;6.70;99.90;;;;;;8418186;28;20199;-66
2023/12/17 00:05:21;;;;;;;11.17;4.57;;;6.70;99.90;;;;;;8415127;28;20188;-64
2023/12/17 00:09:22;;;;;;;15.30;5.27;;;6.70;99.90;;;;;;8425812;27;20283;-64
2023/12/17 00:13:24;;;;;;;8.43;4.60;;;6.70;99.90;;;;;;8416076;28;20184;-65
2023/12/17 00:17:25;;;;;;;12.53;5.33;;;6.70;99.90;;;;;;8415511;28;20188;-65
2023/12/17 00:21:26;;;;;;;8.77;5.07;;;6.70;99.90;;;;;;8431826;27;20188;-65
2023/12/17 00:25:27;;;;;;;12.17;5.90;;;6.80;99.90;;;;;;8420694;28;20191;-65
2023/12/17 00:29:28;;;;;;;14.63;4.77;;;6.80;99.90;;;;;;8419475;28;20184;-64
2023/12/17 00:33:28;;;;;;;9.77;4.37;;;6.80;99.90;;;;;;8415086;28;20191;-64
2023/12/17 00:37:29;;;;;;;11.10;5.27;;;6.80;99.90;;;;;;8417678;28;20188;-66
2023/12/17 00:41:31;;;;;;;11.87;5.40;;;6.80;99.90;;;;;;8430789;27;20228;-65
2023/12/17 00:45:32;;;;;;;13.33;5.63;;;6.80;99.90;;;;;;8423167;28;20192;-68
2023/12/17 00:49:32;;;;;;;11.17;5.50;;;6.80;99.90;;;;;;8415812;28;20533;-68
2023/12/17 00:53:33;;;;;;;8.83;5.03;;;6.80;99.90;;;;;;8417045;28;20221;-64
2023/12/17 00:57:34;;;;;;;12.57;5.07;;;6.80;99.90;;;;;;8411872;28;20189;-65
2023/12/17 01:01:35;;;;;;;9.67;5.27;;;6.80;99.90;;;;;;8391777;28;20615;-64
2023/12/17 01:05:36;;;;;;;11.97;5.67;;;6.80;99.90;;;;;;8394833;28;20203;-65
2023/12/17 01:09:36;;;;;;;9.73;5.50;;;6.70;99.90;;;;;;8392693;28;20189;-67
2023/12/17 01:13:37;;;;;;;11.67;5.50;;;6.80;99.90;;;;;;8397428;28;20180;-65
2023/12/17 01:17:38;;;;;;;8.70;5.43;;;6.80;99.90;;;;;;8396717;28;20195;-64
2023/12/17 01:21:38;;;;;;;8.93;5.93;;;6.70;99.90;;;;;;8391892;28;20267;-66
2023/12/17 01:25:39;;;;;;;7.27;4.57;;;6.80;1.00;;;;;;8395712;28;20208;-65
2023/12/17 01:29:40;;;;;;;11.70;5.30;;;6.70;1.00;;;;;;8390843;28;20193;-66
2023/12/17 01:33:41;;;;;;;8.23;4.50;;;6.70;99.90;;;;;;8391926;28;20292;-65
2023/12/17 01:37:42;;;;;;;9.50;4.73;;;6.80;99.90;;;;;;8393899;28;20237;-67
2023/12/17 01:41:44;;;;;;;5.57;4.50;;;6.80;99.90;;;;;;8389517;28;20492;-66
2023/12/17 01:45:45;;;;;;;7.40;4.40;;;6.80;99.90;;;;;;8395815;28;20291;-69
2023/12/17 01:49:46;;;;;;;7.57;4.27;;;6.80;99.90;;;;;;8377920;28;20185;-66
2023/12/17 01:53:47;;;;;;;8.13;4.53;;;6.90;99.90;;;;;;8388419;28;20320;-66
2023/12/17 01:57:48;;;;;;;9.83;4.30;;;6.90;99.90;;;;;;8388506;28;20196;-66
2023/12/17 02:01:52;;;;;;;7.73;4.57;;;6.90;99.90;;;;;;8390149;28;20664;-68
2023/12/17 02:05:53;;;;;;;6.33;4.20;;;6.90;99.90;;;;;;8391603;28;20208;-65
2023/12/17 02:09:54;;;;;;;7.33;4.10;;;6.90;99.90;;;;;;8390786;28;20185;-67
2023/12/17 02:13:54;;;;;;;6.73;4.10;;;6.90;99.90;;;;;;8391944;28;20184;-68
2023/12/17 02:17:55;;;;;;;10.30;4.67;;;6.90;99.90;;;;;;8389706;28;20192;-66
2023/12/17 02:21:56;;;;;;;8.40;3.83;;;6.90;99.90;;;;;;8396061;28;20188;-70
2023/12/17 02:25:56;;;;;;;7.60;4.37;;;6.90;99.90;;;;;;8389314;28;20215;-68
2023/12/17 02:29:57;;;;;;;8.53;3.93;;;6.90;99.90;;;;;;8386050;28;20181;-69
2023/12/17 02:33:58;;;;;;;7.03;4.33;;;6.90;99.90;;;;;;8387369;28;20212;-67
2023/12/17 02:37:59;;;;;;;6.33;4.17;;;6.80;99.90;;;;;;8389082;28;20265;-68
2023/12/17 02:41:59;;;;;;;6.40;3.67;;;6.80;99.90;;;;;;8389380;28;20224;-69
2023/12/17 02:46:00;;;;;;;8.47;3.73;;;6.80;99.90;;;;;;8384225;28;20357;-66
2023/12/17 02:50:01;;;;;;;8.20;4.10;;;6.80;99.90;;;;;;8391370;28;20194;-67
2023/12/17 02:54:02;;;;;;;5.73;3.73;;;6.70;99.90;;;;;;8391677;28;20189;-66
2023/12/17 02:58:05;;;;;;;7.50;3.60;;;6.70;99.90;;;;;;8389074;28;20196;-68
2023/12/17 03:02:06;;;;;;;5.83;3.70;;;6.70;99.90;;;;;;8381126;28;20193;-66
2023/12/17 03:06:07;;;;;;;6.57;4.03;;;6.70;99.90;;;;;;8392061;28;20258;-67
2023/12/17 03:10:09;;;;;;;7.90;3.77;;;6.70;99.90;;;;;;8385107;28;20185;-66
2023/12/17 03:14:10;;;;;;;7.57;4.37;;;6.70;99.90;;;;;;8386512;28;20186;-66
2023/12/17 03:18:11;;;;;;;6.00;3.33;;;6.60;99.90;;;;;;8381090;28;20192;-65
2023/12/17 03:22:12;;;;;;;7.67;4.07;;;6.50;99.90;;;;;;8388085;28;20195;-66
2023/12/17 03:26:13;;;;;;;9.27;4.27;;;6.50;99.90;;;;;;8393138;28;20216;-67
2023/12/17 03:30:13;;;;;;;7.87;3.60;;;6.50;1.00;;;;;;8389608;28;20195;-66
2023/12/17 03:34:14;;;;;;;8.63;3.83;;;6.50;1.00;;;;;;8386998;28;20196;-69
2023/12/17 03:38:15;;;;;;;9.83;3.43;;;6.50;1.00;;;;;;8384491;28;20188;-68
2023/12/17 03:42:16;;;;;;;6.03;4.20;;;6.50;1.00;;;;;;8391212;28;20218;-69
2023/12/17 03:46:17;;;;;;;9.13;4.13;;;6.50;1.00;;;;;;8388230;28;20213;-67
2023/12/17 03:50:19;;;;;;;8.13;4.50;;;6.40;1.00;;;;;;8388346;28;20193;-66
2023/12/17 03:54:20;;;;;;;4.93;3.40;;;6.40;1.00;;;;;;8377312;28;20196;-66
2023/12/17 03:58:20;;;;;;;9.03;4.13;;;6.40;1.00;;;;;;8387380;28;20193;-67
2023/12/17 04:02:21;;;;;;;4.90;3.80;;;6.40;1.00;;;;;;8390345;28;20188;-68
2023/12/17 04:06:22;;;;;;;5.63;3.60;;;6.50;1.00;;;;;;8389914;28;20204;-69
2023/12/17 04:10:23;;;;;;;8.63;3.83;;;6.50;99.90;;;;;;8387519;28;20289;-65
2023/12/17 04:14:23;;;;;;;6.27;3.60;;;6.50;99.90;;;;;;8385442;28;20177;-66
2023/12/17 04:18:24;;;;;;;6.20;4.10;;;6.50;99.90;;;;;;8384640;28;20185;-65
2023/12/17 04:22:25;;;;;;;10.13;4.20;;;6.50;99.90;;;;;;8392152;28;20198;-66
2023/12/17 04:26:26;;;;;;;6.57;3.57;;;6.40;99.90;;;;;;8388161;28;20232;-68
2023/12/17 04:30:26;;;;;;;7.67;3.80;;;6.30;99.90;;;;;;8388566;28;20189;-66
2023/12/17 04:34:27;;;;;;;8.57;3.70;;;6.30;99.90;;;;;;8391810;28;20823;-68
2023/12/17 04:38:28;;;;;;;8.67;3.70;;;6.20;1.00;;;;;;8395988;28;20208;-65
2023/12/17 04:42:28;;;;;;;9.57;3.70;;;6.20;99.90;;;;;;8398932;28;20216;-66
2023/12/17 04:46:30;;;;;;;9.03;3.67;;;6.10;99.90;;;;;;8396600;28;20215;-67
2023/12/17 04:50:31;;;;;;;5.43;3.30;;;6.10;99.90;;;;;;8394295;28;20189;-65
2023/12/17 04:54:32;;;;;;;7.50;3.50;;;6.20;99.90;;;;;;8393868;28;20229;-67
2023/12/17 04:58:33;;;;;;;8.93;3.63;;;6.20;99.90;;;;;;8393292;28;20559;-67
2023/12/17 05:02:33;;;;;;;7.20;3.40;;;6.20;99.90;;;;;;8399367;28;20196;-68
2023/12/17 05:06:38;;;;;;;6.17;3.70;;;6.30;99.90;;;;;;8394957;28;20219;-66
2023/12/17 05:10:38;;;;;;;6.93;3.83;;;6.20;99.90;;;;;;8391059;28;20193;-66
2023/12/17 05:14:39;;;;;;;8.47;3.13;;;6.30;99.90;;;;;;8394722;28;20223;-67
2023/12/17 05:18:40;;;;;;;7.37;3.57;;;6.30;99.90;;;;;;8392025;28;20396;-65
2023/12/17 05:22:41;;;;;;;7.23;3.30;;;6.30;99.90;;;;;;8395290;28;20197;-69
2023/12/17 05:26:41;;;;;;;6.87;3.40;;;6.30;99.90;;;;;;8400590;28;20360;-65
2023/12/17 05:30:42;;;;;;;7.70;3.63;;;6.20;99.90;;;;;;8390744;28;20285;-67
2023/12/17 05:34:43;;;;;;;7.40;3.67;;;6.20;99.90;;;;;;8396043;28;20293;-69
2023/12/17 05:38:45;;;;;;;7.30;3.20;;;6.20;99.90;;;;;;8390188;28;20232;-67
2023/12/17 05:42:46;;;;;;;7.07;3.17;;;6.20;99.90;;;;;;8392194;28;20212;-65
2023/12/17 05:46:47;;;;;;;7.90;3.83;;;6.20;99.90;;;;;;8394259;28;20212;-68
2023/12/17 05:50:47;;;;;;;5.73;3.90;;;6.20;99.90;;;;;;8393228;28;20192;-67
2023/12/17 05:54:48;;;;;;;7.17;3.60;;;6.20;99.90;;;;;;8388522;28;20238;-67
2023/12/17 05:58:49;;;;;;;11.53;4.50;;;6.10;99.90;;;;;;8406580;28;20188;-65
2023/12/17 06:02:50;;;;;;;9.90;3.93;;;6.10;99.90;;;;;;8396142;28;20184;-64
2023/12/17 06:06:51;;;;;;;9.90;3.70;;;6.10;99.90;;;;;;8394599;28;20212;-66
2023/12/17 06:10:52;;;;;;;7.23;4.00;;;6.10;99.90;;;;;;8394383;28;20191;-66
2023/12/17 06:14:52;;;;;;;7.37;3.73;;;6.10;99.90;;;;;;8392776;28;20185;-65
2023/12/17 06:18:53;;;;;;;6.30;3.73;;;6.10;99.90;;;;;;8391023;28;20472;-64
2023/12/17 06:22:54;;;;;;;5.57;3.67;;;6.00;99.90;;;;;;8396783;28;20227;-68
2023/12/17 06:26:55;;;;;;;7.37;4.00;;;6.10;99.90;;;;;;8395991;28;20701;-66
2023/12/17 06:30:56;;;;;;;8.07;4.00;;;6.00;99.90;;;;;;8396057;28;20227;-67
2023/12/17 06:34:56;;;;;;;6.50;3.77;;;6.00;99.90;;;;;;8394457;28;20203;-65
2023/12/17 06:38:57;;;;;;;6.67;3.83;;;6.00;99.90;;;;;;8392969;28;20219;-67
2023/12/17 06:42:58;;;;;;;6.37;3.93;;;6.00;99.90;;;;;;8393685;28;20311;-64
2023/12/17 06:46:59;;;;;;;7.90;4.13;;;6.00;99.90;;;;;;8399921;28;20215;-67
2023/12/17 06:51:04;;;;;;;6.17;4.40;;;6.00;99.90;;;;;;8396798;28;20196;-67
2023/12/17 06:55:06;;;;;;;8.57;4.20;;;6.00;99.90;;;;;;8390503;28;20189;-66
2023/12/17 06:59:07;;;;;;;8.30;4.20;;;5.90;99.90;;;;;;8396557;28;20204;-64
2023/12/17 07:03:07;;;;;;;6.57;4.40;;;5.90;1.00;;;;;;8390674;28;20196;-65
2023/12/17 07:07:08;;;;;;;9.27;4.27;;;5.90;1.00;;;;;;8389356;28;20220;-65
2023/12/17 07:11:10;;;;;;;9.83;4.40;;;5.90;1.00;;;;;;8389222;28;20203;-66
2023/12/17 07:15:11;;;;;;;10.10;4.50;;;5.90;1.00;;;;;;8388541;28;20284;-66
2023/12/17 07:19:12;;;;;;;9.50;4.63;;;5.90;1.00;;;;;;8384929;28;20203;-64
2023/12/17 07:23:13;;;;;;;7.43;4.53;;;5.90;1.00;;;;;;8384037;28;20257;-66
2023/12/17 07:27:14;;;;;;;9.00;4.20;;;6.00;1.00;;;;;;8392979;28;20206;-66
2023/12/17 07:31:15;;;;;;;8.77;4.50;;;5.90;1.00;;;;;;8389383;28;20203;-64
2023/12/17 07:35:16;;;;;;;8.97;4.77;;;5.90;1.00;;;;;;8380422;28;20194;-66
2023/12/17 07:39:18;;;;;;;10.37;4.63;;;5.90;1.00;;;;;;8386810;28;20196;-67
2023/12/17 07:43:19;;;;;;;6.03;4.17;;;5.90;1.00;;;;;;8387396;28;20204;-68
2023/12/17 07:47:20;;;;;;;8.10;4.43;;;5.90;1.00;;;;;;8394602;28;20335;-66
2023/12/17 07:51:21;;;;;;;9.90;4.50;;;6.00;1.00;;;;;;8394520;28;20216;-66
2023/12/17 07:55:22;;;;;;;6.93;4.40;;;6.00;1.00;;;;;;8386861;28;20191;-67
2023/12/17 07:59:23;;;;;;;7.00;4.60;;;6.10;1.00;;;;;;8388906;28;20185;-66
2023/12/17 08:03:24;;;;;;;8.40;4.73;;;6.10;1.00;;;;;;8393235;28;20270;-66
2023/12/17 08:07:25;;;;;;;7.17;4.30;;;6.00;15.10;;;;;;8375277;28;20311;-66
2023/12/17 08:11:26;;;;;;;9.67;4.60;;;6.00;96.60;;;;;;8395421;28;20218;-66
2023/12/17 08:15:26;;;;;;;6.57;4.60;;;6.00;99.90;;;;;;8395596;28;20188;-66
2023/12/17 08:19:27;;;;;;;8.83;5.20;;;6.00;99.90;;;;;;8394231;28;20209;-66
2023/12/17 08:23:29;;;;;;;8.20;4.63;;;6.00;99.90;;;;;;8397505;28;20195;-65
2023/12/17 08:27:29;;;;;;;6.70;4.10;;;6.00;99.90;;;;;;8384136;28;20235;-65
2023/12/17 08:31:31;;;;;;;6.90;4.33;;;6.10;99.90;;;;;;8401691;28;20181;-65
2023/12/17 08:35:34;;;;;;;8.60;4.80;;;6.10;99.90;;;;;;8406896;28;20184;-65
2023/12/17 08:39:35;;;;;;;6.83;5.00;;;6.10;99.90;;;;;;8398681;28;20188;-65
2023/12/17 08:43:36;;;;;;;6.53;4.70;;;6.10;99.90;;;;;;8387563;28;20209;-66
2023/12/17 08:47:37;;;;;;;6.77;4.83;;;6.20;99.90;;;;;;8394460;28;20217;-64
2023/12/17 08:51:38;;;;;;;9.53;5.07;;;6.30;99.90;;;;;;8394533;28;20200;-65
2023/12/17 08:55:39;;;;;;;7.43;4.50;;;6.30;99.90;;;;;;8392702;28;20188;-64
2023/12/17 08:59:43;;;;;;;9.23;4.40;;;6.30;99.90;;;;;;8389506;28;20195;-65
2023/12/17 09:03:44;;;;;;;9.23;4.57;;;6.30;99.90;;;;;;8393457;28;20193;-65
2023/12/17 09:07:45;;;;;;;7.90;4.20;;;6.30;99.90;;;;;;8392193;28;20208;-65
2023/12/17 09:11:46;;;;;;;7.33;4.50;;;6.30;99.90;;;;;;8401777;28;20276;-64
2023/12/17 09:15:47;;;;;;;9.03;4.87;;;6.30;99.90;;;;;;8394290;28;20251;-65
2023/12/17 09:19:48;;;;;;;10.00;5.37;;;6.40;99.90;;;;;;8396896;28;20195;-64
2023/12/17 09:23:49;;;;;;;8.77;4.63;;;6.40;99.90;;;;;;8389965;28;20309;-65
2023/12/17 09:27:53;;;;;;;10.07;4.57;;;6.40;99.90;;;;;;8397052;28;20262;-66
2023/12/17 09:31:54;;;;;;;8.83;5.17;;;6.50;99.90;;;;;;8396726;28;20181;-67
2023/12/17 09:35:55;;;;;;;6.77;4.37;;;6.50;80.60;;;;;;8397836;28;20196;-65
2023/12/17 09:39:56;;;;;;;6.83;4.03;;;6.50;99.90;;;;;;8396841;28;20193;-66
2023/12/17 09:43:57;;;;;;;6.20;4.43;;;6.50;99.90;;;;;;8392930;28;20250;-66
2023/12/17 09:47:58;;;;;;;7.97;4.50;;;6.50;99.90;;;;;;8393267;28;20213;-67
2023/12/17 09:52:03;;;;;;;7.37;4.43;;;6.50;99.90;;;;;;8389880;28;20185;-67
2023/12/17 09:56:04;;;;;;;6.50;4.83;;;6.50;99.90;;;;;;8396195;28;20199;-66
2023/12/17 10:00:11;;;;;;;9.07;5.10;;;6.70;99.90;;;;;;8396375;28;20220;-65
2023/12/17 10:04:11;;;;;;;6.63;5.20;;;6.60;99.90;;;;;;8404100;28;20188;-65
2023/12/17 10:08:12;;;;;;;8.60;4.70;;;6.60;99.90;;;;;;8399776;28;20208;-66
2023/12/17 10:12:15;;;;;;;6.97;5.07;;;6.70;99.90;;;;;;8395788;28;20192;-66
2023/12/17 10:16:17;;;;;;;8.03;5.27;;;6.60;99.90;;;;;;8397184;28;20181;-69
2023/12/17 10:20:19;;;;;;;9.40;4.73;;;6.60;99.90;;;;;;8392222;28;20197;-66
2023/12/17 10:24:37;;;;;;;7.00;4.77;;;6.50;99.90;;;;;;8393732;28;20189;-66
2023/12/17 10:28:44;;;;;;;8.70;4.97;;;6.50;99.90;;;;;;8394428;28;20224;-65
2023/12/17 10:32:45;;;;;;;8.27;5.07;;;6.70;99.90;;;;;;8398568;28;20209;-65
2023/12/17 10:36:51;;;;;;;8.97;5.20;;;6.70;1.00;;;;;;8391742;28;20196;-67
2023/12/17 10:40:52;;;;;;;6.53;4.50;;;6.60;1.00;;;;;;8404224;28;20188;-65
2023/12/17 10:44:54;;;;;;;8.77;5.50;;;6.60;10.50;;;;;;8393414;28;20208;-66
2023/12/17 10:48:55;;;;;;;9.87;4.70;;;6.60;1.00;;;;;;8396418;28;20224;-68
2023/12/17 10:52:56;;;;;;;10.23;5.27;;;6.50;1.00;;;;;;8396254;28;20188;-67
2023/12/17 10:56:59;;;;;;;8.10;5.13;;;6.50;1.00;;;;;;8391797;28;20235;-65
2023/12/17 11:01:00;;;;;;;9.00;4.47;;;6.50;1.00;;;;;;8394985;28;20184;-68
2023/12/17 11:05:01;;;;;;;7.03;4.37;;;6.50;1.00;;;;;;8386377;28;20193;-64
2023/12/17 11:09:04;;;;;;;5.63;4.27;;;6.40;1.00;;;;;;8397702;28;20211;-66
2023/12/17 11:13:05;;;;;;;8.10;4.70;;;6.50;1.00;;;;;;8394555;28;20188;-65
2023/12/17 11:17:12;;;;;;;9.20;4.70;;;6.50;1.00;;;;;;8400782;28;20290;-69
2023/12/17 11:21:14;;;;;;;5.17;4.07;;;6.40;1.00;;;;;;8397249;28;20196;-66
2023/12/17 11:25:15;;;;;;;6.47;4.30;;;6.40;1.00;;;;;;8401671;28;20189;-67
2023/12/17 11:29:37;;;;;;;6.57;4.63;;;6.40;1.00;;;;;;8398357;28;20200;-67
2023/12/17 11:33:42;;;;;;;9.07;4.47;;;6.50;1.00;;;;;;8378750;27;20228;-65
2023/12/17 11:37:43;;;;;;;6.90;4.37;;;6.60;99.90;;;;;;8388329;28;20251;-64
2023/12/17 11:41:44;;;;;;;7.37;4.47;;;6.70;99.90;;;;;;8391176;28;20231;-64
2023/12/17 11:45:45;;;;;;;4.07;3.43;;;6.80;99.90;;;;;;8392591;28;20173;-68
2023/12/17 11:49:46;;;;;;;5.47;3.60;;;7.00;99.90;;;;;;8392876;28;20188;-71
2023/12/17 11:53:47;;;;;;;7.23;3.57;;;7.20;99.90;;;;;;8386374;28;20192;-65
2023/12/17 11:57:48;;;;;;;5.33;3.40;;;7.10;99.90;;;;;;8385361;28;20188;-64
2023/12/17 12:01:49;;;;;;;5.83;3.40;;;7.20;99.90;;;;;;8389216;28;20196;-65
2023/12/17 12:05:59;;;;;;;4.23;3.13;;;7.30;99.90;;;;;;8392530;28;20211;-67
2023/12/17 12:10:07;;;;;;;4.87;3.40;;;7.30;99.90;;;;;;8381563;28;20231;-66
2023/12/17 12:14:08;;;;;;;5.87;3.27;;;7.30;99.90;;;;;;8388465;28;20425;-65
2023/12/17 12:18:22;;;;;;;3.97;2.77;;;7.50;99.90;;;;;;8390141;28;20192;-65
2023/12/17 12:22:28;;;;;;;5.27;3.10;;;7.70;67.90;;;;;;8388383;28;20222;-67
2023/12/17 12:26:33;;;;;;;6.47;3.13;;;7.70;38.90;;;;;;8390237;28;20213;-66
2023/12/17 12:30:34;;;;;;;3.67;2.60;;;7.60;17.90;;;;;;8389412;28;20180;-66
2023/12/17 12:34:35;;;;;;;7.03;2.93;;;7.70;23.30;;;;;;8393324;28;20200;-66
2023/12/17 12:38:36;;;;;;;6.20;3.10;;;7.70;11.60;;;;;;8383015;28;20366;-66
2023/12/17 12:42:37;;;;;;;3.73;2.87;;;7.80;3.70;;;;;;8391784;28;20216;-66
2023/12/17 12:46:38;;;;;;;3.60;2.20;;;7.80;1.00;;;;;;8386911;28;20215;-66
2023/12/17 12:50:39;;;;;;;5.53;2.87;;;7.80;1.00;;;;;;8391289;28;20192;-67
2023/12/17 12:54:41;;;;;;;6.80;2.87;;;7.80;1.00;;;;;;8390325;28;20188;-66
2023/12/17 12:58:43;;;;;;;6.67;2.83;;;7.80;1.00;;;;;;8393172;28;20193;-67
2023/12/17 13:02:44;;;;;;;3.47;2.20;;;7.80;1.00;;;;;;8405730;28;20207;-65
2023/12/17 13:06:44;;;;;;;5.97;2.77;;;7.90;1.00;;;;;;8393599;28;20237;-65
2023/12/17 13:10:45;;;;;;;4.57;2.37;;;7.90;1.00;;;;;;8398373;28;20188;-66
2023/12/17 13:14:46;;;;;;;5.80;2.30;;;7.90;1.00;;;;;;8389964;28;20242;-65
2023/12/17 13:18:47;;;;;;;3.70;2.60;;;8.00;1.00;;;;;;8379681;28;20200;-66
2023/12/17 13:22:48;;;;;;;3.40;2.20;;;8.00;1.00;;;;;;8393536;28;20265;-64
2023/12/17 13:26:49;;;;;;;4.37;3.00;;;8.00;1.00;;;;;;8395865;28;20204;-65
2023/12/17 13:30:50;;;;;;;4.40;2.53;;;8.00;1.00;;;;;;8394961;28;20184;-64
2023/12/17 13:34:51;;;;;;;5.30;2.20;;;7.90;1.00;;;;;;8396313;28;20263;-67
2023/12/17 13:38:52;;;;;;;5.67;2.40;;;7.90;1.00;;;;;;8390063;28;20192;-65
2023/12/17 13:42:52;;;;;;;5.80;2.80;;;7.90;1.00;;;;;;8389821;28;20216;-66
2023/12/17 13:46:53;;;;;;;4.87;2.50;;;7.90;1.00;;;;;;8398451;28;20210;-65
2023/12/17 13:50:54;;;;;;;4.60;2.13;;;7.80;1.00;;;;;;8387749;28;20188;-64
2023/12/17 13:54:55;;;;;;;5.07;2.37;;;7.80;1.00;;;;;;8390866;28;20188;-65
2023/12/17 13:58:55;;;;;;;5.57;2.67;;;7.70;1.00;;;;;;8386963;28;20191;-66
2023/12/17 14:02:56;;;;;;;6.20;3.30;;;7.60;1.00;;;;;;8388901;28;20219;-66
2023/12/17 14:06:58;;;;;;;8.80;4.37;;;7.50;1.00;;;;;;8385984;28;20250;-66
2023/12/17 14:10:59;;;;;;;9.53;4.40;;;7.40;1.10;;;;;;8385971;28;20189;-64
2023/12/17 14:15:00;;;;;;;7.57;3.97;;;7.30;10.10;;;;;;8391708;28;20192;-64
2023/12/17 14:19:01;;;;;;;11.53;4.93;;;7.10;22.60;;;;;;8389660;28;20185;-64
2023/12/17 14:23:02;;;;;;;9.23;4.90;;;7.00;40.80;;;;;;8383118;28;20191;-64
2023/12/17 14:27:03;;;;;;;7.70;4.57;;;6.90;73.50;;;;;;8381495;28;20308;-65
2023/12/17 14:31:04;;;;;;;11.80;5.10;;;6.80;95.30;;;;;;8384139;28;20212;-65
2023/12/17 14:35:09;;;;;;;12.13;5.43;;;6.60;99.90;;;;;;8391277;28;20273;-65
2023/12/17 14:39:10;;;;;;;11.33;5.47;;;6.50;99.90;;;;;;8375746;28;20217;-65
2023/12/17 14:43:11;;;;;;;9.50;4.83;;;6.40;99.90;;;;;;8390313;28;20236;-64
2023/12/17 14:47:12;;;;;;;9.03;4.80;;;6.30;99.90;;;;;;8388712;28;20244;-63
2023/12/17 14:51:13;;;;;;;9.83;5.00;;;6.30;99.90;;;;;;8390870;28;20196;-65
2023/12/17 14:55:14;;;;;;;8.77;4.73;;;6.20;99.90;;;;;;8393562;28;20277;-65
2023/12/17 14:59:14;;;;;;;8.33;4.50;;;6.20;99.90;;;;;;8397455;28;20477;-65
2023/12/17 15:03:18;;;;;;;11.20;4.43;;;6.10;99.90;;;;;;8388400;28;20228;-65
2023/12/17 15:07:20;;;;;;;8.60;4.63;;;6.00;99.90;;;;;;8392080;28;20243;-66
2023/12/17 15:11:21;;;;;;;7.57;4.90;;;6.00;99.90;;;;;;8376060;28;20216;-65
2023/12/17 15:15:22;;;;;;;7.40;4.57;;;6.00;99.90;;;;;;8379347;28;20183;-65
2023/12/17 15:19:23;;;;;;;10.20;4.50;;;6.00;99.90;;;;;;8385107;28;20204;-64
2023/12/17 15:23:23;;;;;;;7.63;4.53;;;6.00;99.90;;;;;;8382085;28;20189;-66
2023/12/17 15:27:24;;;;;;;7.93;4.57;;;6.00;99.90;;;;;;8381877;28;20315;-66
2023/12/17 15:31:25;;;;;;;8.20;4.30;;;5.90;99.90;;;;;;8384946;28;20198;-65
2023/12/17 15:35:26;;;;;;;9.23;4.37;;;5.80;99.90;;;;;;8386070;28;20270;-65
2023/12/17 15:39:28;;;;;;;8.00;4.37;;;5.80;99.90;;;;;;8393699;28;20234;-65
2023/12/17 15:43:28;;;;;;;7.90;4.40;;;5.70;99.90;;;;;;8396476;28;20208;-66
2023/12/17 15:47:34;;;;;;;9.87;5.13;;;5.70;99.90;;;;;;8395137;28;20247;-66
2023/12/17 15:51:37;;;;;;;13.00;5.30;;;5.60;99.90;;;;;;8387552;28;20187;-66
2023/12/17 15:55:38;;;;;;;11.27;4.67;;;5.60;99.90;;;;;;8389294;28;20185;-66
2023/12/17 15:59:39;;;;;;;8.50;4.60;;;5.60;99.90;;;;;;8381768;28;20610;-66
2023/12/17 16:03:40;;;;;;;11.23;5.33;;;5.60;99.90;;;;;;8392305;28;20196;-64
2023/12/17 16:07:50;;;;;;;14.03;5.97;;;5.60;99.90;;;;;;8379190;28;20212;-64
2023/12/17 16:11:51;;;;;;;9.50;5.10;;;5.70;99.90;;;;;;8393961;28;20182;-66
2023/12/17 16:15:52;;;;;;;11.13;4.63;;;5.80;99.90;;;;;;8394033;28;20261;-65
2023/12/17 16:19:53;;;;;;;6.83;4.93;;;5.90;99.90;;;;;;8400564;28;20192;-64
2023/12/17 16:23:57;;;;;;;6.80;4.17;;;5.90;99.90;;;;;;8395302;28;20181;-65
2023/12/17 16:27:59;;;;;;;14.07;4.73;;;6.00;99.90;;;;;;8389869;28;20557;-66
2023/12/17 16:32:00;;;;;;;12.37;5.37;;;6.00;93.00;;;;;;8400009;28;20192;-65
2023/12/17 16:36:01;;;;;;;12.63;5.90;;;6.10;71.40;;;;;;8398779;28;20235;-66
2023/12/17 16:40:03;;;;;;;8.40;5.03;;;6.20;56.30;;;;;;8396743;28;20192;-66
2023/12/17 16:44:04;;;;;;;9.17;4.40;;;6.20;53.20;;;;;;8387511;28;20211;-65
2023/12/17 16:48:06;;;;;;;8.10;4.47;;;6.10;48.50;;;;;;8390035;28;20208;-65
2023/12/17 16:52:06;;;;;;;9.10;4.77;;;6.10;43.10;;;;;;8398145;28;20185;-67
2023/12/17 16:56:09;;;;;;;7.83;4.40;;;6.10;43.70;;;;;;8397015;28;20193;-65
2023/12/17 17:00:10;;;;;;;7.70;4.90;;;6.20;43.60;;;;;;8391331;28;20253;-66
2023/12/17 17:04:12;;;;;;;9.93;5.20;;;6.20;30.00;;;;;;8393999;28;20918;-66
2023/12/17 17:08:13;;;;;;;9.93;4.90;;;6.30;21.90;;;;;;8391416;28;20208;-66
2023/12/17 17:12:14;;;;;;;8.30;4.63;;;6.40;12.70;;;;;;8389720;28;20180;-66
2023/12/17 17:16:15;;;;;;;9.30;5.07;;;6.40;12.00;;;;;;8389457;28;21948;-65
2023/12/17 17:20:16;;;;;;;14.57;5.10;;;6.40;6.90;;;;;;8393770;28;20218;-67
2023/12/17 17:24:18;;;;;;;10.73;4.60;;;6.50;1.00;;;;;;8387364;28;20397;-65
2023/12/17 17:28:19;;;;;;;8.83;4.63;;;6.50;1.00;;;;;;8395571;28;20208;-66
2023/12/17 17:32:20;;;;;;;9.43;4.90;;;6.60;1.00;;;;;;8391763;28;20181;-66
2023/12/17 17:36:21;;;;;;;6.70;4.37;;;6.60;1.00;;;;;;8392970;28;20197;-65
2023/12/17 17:40:22;;;;;;;9.13;4.50;;;6.70;1.00;;;;;;8390204;28;20995;-65
2023/12/17 17:44:23;;;;;;;9.57;4.50;;;6.70;1.00;;;;;;8396364;28;20204;-64
2023/12/17 17:48:25;;;;;;;6.73;4.60;;;6.80;1.00;;;;;;8395053;28;20516;-65
2023/12/17 17:52:26;;;;;;;6.03;4.30;;;6.90;1.00;;;;;;8383094;28;20180;-66
2023/12/17 17:56:27;;;;;;;6.73;4.13;;;6.90;1.00;;;;;;8379894;28;20195;-63
2023/12/17 18:00:28;;;;;;;5.50;3.60;;;6.80;1.00;;;;;;8381768;28;20271;-66
2023/12/17 18:04:29;;;;;;;7.03;4.67;;;6.80;1.00;;;;;;8383119;28;20189;-65
2023/12/17 18:08:30;;;;;;;8.53;3.80;;;6.90;1.00;;;;;;8386880;28;20343;-66
2023/12/17 18:12:32;;;;;;;7.33;3.90;;;6.90;1.00;;;;;;8390400;28;20184;-67
2023/12/17 18:16:33;;;;;;;7.57;4.30;;;6.90;1.00;;;;;;8394485;28;20200;-67
2023/12/17 18:20:37;;;;;;;7.27;4.00;;;6.90;1.00;;;;;;8393647;28;20199;-66
2023/12/17 18:24:38;;;;;;;7.90;4.20;;;6.90;1.00;;;;;;8394515;28;20482;-64
2023/12/17 18:28:39;;;;;;;9.17;4.73;;;6.90;1.00;;;;;;8395634;28;20231;-66
2023/12/17 18:32:40;;;;;;;6.80;4.23;;;7.00;1.00;;;;;;8404175;28;20237;-65
2023/12/17 18:36:41;;;;;;;8.77;4.60;;;7.00;1.00;;;;;;8395533;28;20219;-66
2023/12/17 18:40:41;;;;;;;9.30;4.10;;;7.00;1.00;;;;;;8397426;28;20193;-64
2023/12/17 18:44:42;;;;;;;7.93;3.97;;;6.90;1.00;;;;;;8387093;28;20216;-65
2023/12/17 18:48:44;;;;;;;4.80;3.47;;;6.90;1.00;;;;;;8392167;28;20246;-66
2023/12/17 18:52:45;;;;;;;7.37;3.77;;;7.00;1.00;;;;;;8396388;28;20184;-65
2023/12/17 18:56:45;;;;;;;5.53;3.93;;;7.00;1.00;;;;;;8391573;28;20293;-65
2023/12/17 19:00:46;;;;;;;6.97;3.47;;;7.00;1.00;;;;;;8387044;28;20211;-66
2023/12/17 19:04:48;;;;;;;5.87;3.63;;;6.90;1.00;;;;;;8393691;28;20219;-65
2023/12/17 19:08:49;;;;;;;6.00;4.10;;;6.80;1.00;;;;;;8394029;28;20204;-65
2023/12/17 19:12:50;;;;;;;6.13;4.23;;;6.80;1.00;;;;;;8392111;28;20612;-66
2023/12/17 19:16:51;;;;;;;7.27;3.83;;;6.80;1.00;;;;;;8389176;28;20197;-65
2023/12/17 19:20:52;;;;;;;9.93;4.03;;;6.80;1.00;;;;;;8389476;28;20192;-67
2023/12/17 19:24:54;;;;;;;7.87;4.07;;;6.90;1.00;;;;;;8393275;28;20189;-67
2023/12/17 19:28:55;;;;;;;6.60;3.90;;;6.90;1.00;;;;;;8389265;28;20236;-69
2023/12/17 19:32:56;;;;;;;6.20;3.73;;;6.90;1.00;;;;;;8393337;28;20189;-65
2023/12/17 19:36:57;;;;;;;7.23;3.77;;;6.90;1.00;;;;;;8392754;28;20188;-64
2023/12/17 19:40:58;;;;;;;5.67;3.37;;;6.90;1.00;;;;;;8394629;28;20222;-64
2023/12/17 19:44:59;;;;;;;6.57;4.20;;;6.90;1.00;;;;;;8393288;28;20260;-65
2023/12/17 19:49:00;;;;;;;8.77;4.00;;;6.90;1.00;;;;;;8383405;28;20305;-65
2023/12/17 19:53:01;;;;;;;9.33;4.27;;;6.90;1.00;;;;;;8381623;28;20188;-66
2023/12/17 19:57:02;;;;;;;6.90;4.17;;;6.90;1.00;;;;;;8388612;28;20180;-65
2023/12/17 20:01:03;;;;;;;7.23;4.20;;;6.90;1.00;;;;;;8392498;28;20188;-66
2023/12/17 20:05:06;;;;;;;6.60;3.47;;;6.90;1.00;;;;;;8390858;28;20180;-66
2023/12/17 20:09:07;;;;;;;9.07;3.67;;;6.90;1.00;;;;;;8394074;28;20517;-65
2023/12/17 20:13:09;;;;;;;8.30;4.40;;;6.90;1.00;;;;;;8398599;28;20202;-65
2023/12/17 20:17:12;;;;;;;8.67;4.07;;;6.90;1.00;;;;;;8395115;28;20206;-65
2023/12/17 20:21:13;;;;;;;7.33;3.90;;;6.80;1.00;;;;;;8402102;28;20204;-66
2023/12/17 20:25:14;;;;;;;9.10;4.07;;;6.80;1.00;;;;;;8400001;28;20524;-66
2023/12/17 20:29:16;;;;;;;6.50;3.80;;;6.90;1.00;;;;;;8407935;28;20204;-65
2023/12/17 20:33:17;;;;;;;6.90;3.93;;;6.90;1.00;;;;;;8414584;27;20196;-65
2023/12/17 20:37:18;;;;;;;8.10;4.00;;;7.00;1.00;;;;;;8404851;28;20184;-64
2023/12/17 20:41:20;;;;;;;10.33;4.07;;;7.00;1.00;;;;;;8400905;28;20276;-66
2023/12/17 20:45:21;;;;;;;7.20;3.80;;;7.00;1.00;;;;;;8398099;28;20216;-65
2023/12/17 20:49:22;;;;;;;5.87;3.90;;;7.00;1.00;;;;;;8400308;28;20239;-64
2023/12/17 20:53:23;;;;;;;8.73;3.70;;;7.00;1.00;;;;;;8398048;28;20217;-66
2023/12/17 20:57:26;;;;;;;6.13;3.10;;;7.00;1.00;;;;;;8392656;28;20315;-66
2023/12/17 21:01:27;;;;;;;9.73;3.93;;;7.00;1.00;;;;;;8404503;28;20322;-66
2023/12/17 21:05:28;;;;;;;8.03;4.10;;;7.00;1.00;;;;;;8396833;28;20200;-65
2023/12/17 21:09:29;;;;;;;7.53;3.63;;;6.90;1.00;;;;;;8402662;28;20209;-65
2023/12/17 21:13:30;;;;;;;10.40;4.00;;;7.00;1.00;;;;;;8406165;28;20242;-65
2023/12/17 21:17:31;;;;;;;5.77;3.73;;;7.00;1.00;;;;;;8380004;28;20220;-65